createdAt,value
2019-01-08T20:02:56.471Z,3.30
2019-01-08T20:05:25.243Z,2.80
2019-01-08T20:07:54.112Z,3.15
2019-01-08T20:10:23.123Z,4.22
2019-01-08T20:12:51.918Z,3.35
2019-01-08T20:15:20.696Z,2.10
2019-01-08T20:17:49.547Z,2.72
2019-01-08T20:20:18.276Z,2.58
2019-01-08T20:22:47.062Z,2.98
2019-01-08T20:25:16.043Z,2.33
2019-01-08T20:27:44.951Z,2.25
2019-01-08T20:30:13.722Z,2.30
2019-01-08T20:32:42.722Z,2.95
2019-01-08T20:35:11.612Z,2.80
2019-01-08T20:37:40.491Z,4.25
2019-01-08T20:40:10.085Z,3.52
2019-01-08T20:42:39.348Z,3.30
2019-01-08T20:45:08.419Z,3.20
2019-01-08T20:47:37.195Z,2.45
2019-01-08T20:50:06.513Z,2.27
2019-01-08T20:52:35.275Z,2.52
2019-01-08T20:55:04.391Z,2.15
2019-01-08T20:57:33.273Z,2.37
2019-01-08T21:00:02.067Z,2.10
2019-01-08T21:02:31.033Z,1.77
2019-01-08T21:05:00.159Z,2.08
2019-01-08T21:07:29.075Z,2.65
2019-01-08T21:09:58.313Z,1.65
2019-01-08T21:12:27.112Z,1.70
2019-01-08T21:14:55.935Z,1.87
2019-01-08T21:17:24.900Z,3.02
2019-01-08T21:19:53.785Z,2.30
2019-01-08T21:22:22.708Z,2.10
2019-01-08T21:24:51.782Z,2.67
2019-01-08T21:27:20.678Z,2.45
2019-01-08T21:29:49.447Z,2.72
2019-01-08T21:32:18.472Z,2.35
2019-01-08T21:34:47.402Z,2.33
2019-01-08T21:37:16.243Z,2.50
2019-01-08T21:39:45.312Z,2.65
2019-01-08T21:42:14.202Z,2.90
2019-01-08T21:44:43.102Z,1.87
2019-01-08T21:47:12.290Z,1.87
2019-01-08T21:49:42.143Z,2.30
2019-01-08T21:52:11.222Z,1.85
2019-01-08T21:54:40.105Z,1.40
2019-01-08T21:57:08.911Z,1.47
2019-01-08T21:59:37.900Z,1.52
2019-01-08T22:02:06.962Z,1.42
2019-01-08T22:04:35.882Z,1.42
2019-01-08T22:07:04.753Z,1.62
2019-01-08T22:09:33.561Z,1.65
2019-01-08T22:12:02.550Z,1.60
2019-01-08T22:14:31.421Z,1.80
2019-01-08T22:17:00.321Z,2.12
2019-01-08T22:19:29.457Z,1.75
2019-01-08T22:21:58.401Z,2.10
2019-01-08T22:24:27.518Z,2.20
2019-01-08T22:26:56.751Z,1.77
2019-01-08T22:29:25.719Z,2.62
2019-01-08T22:31:55.111Z,2.15
2019-01-08T22:34:24.001Z,1.92
2019-01-08T22:36:52.882Z,2.02
2019-01-08T22:39:21.919Z,2.47
2019-01-08T22:41:50.761Z,3.25
2019-01-08T22:44:19.669Z,2.02
2019-01-08T22:46:49.061Z,2.52
2019-01-08T22:49:17.941Z,2.35
2019-01-08T22:51:46.742Z,2.30
2019-01-08T22:54:15.621Z,2.17
2019-01-08T22:56:44.392Z,2.02
2019-01-08T22:59:13.319Z,2.45
2019-01-08T23:01:42.801Z,2.60
2019-01-08T23:04:11.974Z,2.55
2019-01-08T23:06:40.781Z,2.37
2019-01-08T23:09:09.973Z,2.10
2019-01-08T23:11:38.675Z,2.20
2019-01-08T23:14:07.569Z,2.25
2019-01-08T23:16:36.561Z,2.12
2019-01-08T23:19:05.458Z,1.90
2019-01-08T23:21:34.268Z,2.08
2019-01-08T23:24:03.557Z,2.05
2019-01-08T23:26:32.419Z,2.72
2019-01-08T23:29:01.207Z,2.17
2019-01-08T23:31:30.216Z,1.72
2019-01-08T23:33:59.109Z,1.77
2019-01-08T23:36:28.009Z,1.95
2019-01-08T23:38:57.080Z,2.05
2019-01-08T23:41:26.187Z,2.17
2019-01-08T23:43:54.872Z,1.62
2019-01-08T23:46:23.861Z,1.35
2019-01-08T23:48:52.633Z,1.22
2019-01-08T23:51:21.441Z,1.40
2019-01-08T23:53:50.641Z,1.40
2019-01-08T23:56:19.513Z,1.20
2019-01-08T23:58:48.424Z,1.27
